createdAt,value
2023-05-10T00:00:29.542Z,2.90
2023-05-10T00:03:10.028Z,2.90
2023-05-10T00:05:36.988Z,2.95
2023-05-10T00:08:04.394Z,3.03
2023-05-10T00:10:31.361Z,3.22
2023-05-10T00:12:58.683Z,3.13
2023-05-10T00:15:25.655Z,2.80
2023-05-10T00:17:53.011Z,2.60
2023-05-10T00:20:20.105Z,2.63
2023-05-10T00:22:47.455Z,2.83
2023-05-10T00:25:14.379Z,2.63
2023-05-10T00:27:41.877Z,2.50
2023-05-10T00:30:09.653Z,2.58
2023-05-10T00:32:37.176Z,3.03
2023-05-10T00:35:04.619Z,2.42
2023-05-10T00:37:31.986Z,2.50
2023-05-10T00:39:59.256Z,2.63
2023-05-10T00:42:26.634Z,2.85
2023-05-10T00:44:53.594Z,2.35
2023-05-10T00:47:20.953Z,2.28
2023-05-10T00:49:48.288Z,2.28
2023-05-10T00:52:15.849Z,2.60
2023-05-10T00:54:43.331Z,2.22
2023-05-10T00:57:11.105Z,2.28
2023-05-10T00:59:38.204Z,2.55
2023-05-10T01:02:06.963Z,2.60
2023-05-10T01:04:34.470Z,2.20
2023-05-10T01:07:02.208Z,2.17
2023-05-10T01:09:29.362Z,2.30
2023-05-10T01:11:57.842Z,2.88
2023-05-10T01:14:26.752Z,2.58
2023-05-10T01:16:55.003Z,2.17
2023-05-10T01:19:29.374Z,2.90
2023-05-10T01:22:57.663Z,2.58
2023-05-10T01:26:14.261Z,2.25
2023-05-10T01:29:09.365Z,2.60
2023-05-10T01:32:05.465Z,2.47
2023-05-10T01:34:52.861Z,2.28
2023-05-10T01:37:32.374Z,3.05
2023-05-10T01:40:17.043Z,3.00
2023-05-10T01:43:02.252Z,2.70
2023-05-10T01:46:12.753Z,2.67
2023-05-10T01:48:53.001Z,2.80
2023-05-10T01:51:27.238Z,3.20
2023-05-10T01:54:03.507Z,2.05
2023-05-10T01:56:34.247Z,2.50
2023-05-10T01:59:09.945Z,2.78
2023-05-10T02:01:39.899Z,2.70
2023-05-10T02:04:10.612Z,2.95
2023-05-10T02:06:42.239Z,2.33
2023-05-10T02:09:12.667Z,2.42
2023-05-10T02:11:42.668Z,2.35
2023-05-10T02:14:12.632Z,2.50
2023-05-10T02:16:42.202Z,3.30
2023-05-10T02:19:11.459Z,2.30
2023-05-10T02:21:41.378Z,2.80
2023-05-10T02:24:11.749Z,2.72
2023-05-10T02:26:40.602Z,2.20
2023-05-10T02:29:10.168Z,2.83
2023-05-10T02:31:39.873Z,2.40
2023-05-10T02:34:09.999Z,2.30
2023-05-10T02:36:39.864Z,2.38
2023-05-10T02:39:13.794Z,2.38
2023-05-10T02:41:44.461Z,2.70
2023-05-10T02:44:15.302Z,2.20
2023-05-10T02:46:42.605Z,2.40
2023-05-10T02:49:09.526Z,2.30
2023-05-10T02:51:52.047Z,2.28
2023-05-10T02:54:30.609Z,2.08
2023-05-10T02:57:04.995Z,2.55
2023-05-10T02:59:33.605Z,2.00
2023-05-10T03:02:03.080Z,2.05
2023-05-10T03:04:30.171Z,2.40
2023-05-10T03:06:57.700Z,2.45
2023-05-10T03:09:24.809Z,2.67
2023-05-10T03:12:24.217Z,2.38
2023-05-10T03:15:23.494Z,2.45
2023-05-10T03:18:03.208Z,2.20
2023-05-10T03:20:44.253Z,2.58
2023-05-10T03:23:47.308Z,2.80
2023-05-10T03:26:24.638Z,2.65
2023-05-10T03:28:54.320Z,2.17
2023-05-10T03:31:22.035Z,2.28
2023-05-10T03:33:51.423Z,2.35
2023-05-10T03:36:19.404Z,2.00
2023-05-10T03:38:46.851Z,2.35
2023-05-10T03:41:13.974Z,3.28
2023-05-10T03:43:42.224Z,1.98
2023-05-10T03:46:09.230Z,2.17
2023-05-10T03:48:36.806Z,2.22
2023-05-10T03:51:04.008Z,2.70
2023-05-10T03:53:31.200Z,2.38
2023-05-10T03:55:58.187Z,2.80
2023-05-10T03:58:25.493Z,3.15
2023-05-10T04:00:53.487Z,3.22
2023-05-10T04:03:21.362Z,2.75
2023-05-10T04:05:48.542Z,3.38
2023-05-10T04:08:17.509Z,3.15
2023-05-10T04:10:44.628Z,3.10
2023-05-10T04:13:12.323Z,2.67
2023-05-10T04:15:39.330Z,3.17
2023-05-10T04:18:08.884Z,3.38
2023-05-10T04:20:36.089Z,2.85
2023-05-10T04:23:03.418Z,2.60
2023-05-10T04:25:30.334Z,2.55
2023-05-10T04:27:57.624Z,2.42
2023-05-10T04:30:24.931Z,2.63
2023-05-10T04:32:52.124Z,2.67
2023-05-10T04:35:19.193Z,2.40
2023-05-10T04:37:46.406Z,2.63
2023-05-10T04:40:13.970Z,3.00
2023-05-10T04:42:42.449Z,3.03
2023-05-10T04:45:10.726Z,2.63
2023-05-10T04:47:38.379Z,2.95
2023-05-10T04:50:06.377Z,3.03
2023-05-10T04:52:33.882Z,2.38
2023-05-10T04:55:00.847Z,2.50
2023-05-10T04:57:28.237Z,2.67
2023-05-10T04:59:55.389Z,3.53
2023-05-10T05:02:22.763Z,2.97
2023-05-10T05:04:49.897Z,3.05
2023-05-10T05:07:17.278Z,2.50
2023-05-10T05:09:44.245Z,2.55
2023-05-10T05:12:14.979Z,2.80
2023-05-10T05:14:42.327Z,2.85
2023-05-10T05:17:09.773Z,2.72
2023-05-10T05:19:36.837Z,2.60
2023-05-10T05:22:04.126Z,2.58
2023-05-10T05:24:37.692Z,2.42
2023-05-10T05:27:05.737Z,2.70
2023-05-10T05:29:33.112Z,2.78
2023-05-10T05:32:00.683Z,2.58
2023-05-10T05:34:28.022Z,3.72
2023-05-10T05:36:55.373Z,2.17
2023-05-10T05:39:22.427Z,3.05
2023-05-10T05:41:49.681Z,2.70
2023-05-10T05:44:16.655Z,3.08
2023-05-10T05:46:43.849Z,2.90
2023-05-10T05:49:10.966Z,2.63
2023-05-10T05:51:38.324Z,2.20
2023-05-10T05:54:05.691Z,2.40
2023-05-10T05:56:32.919Z,2.70
2023-05-10T05:58:59.839Z,2.90
2023-05-10T06:01:27.144Z,2.47
2023-05-10T06:03:54.326Z,3.00
2023-05-10T06:06:21.573Z,3.30
2023-05-10T06:08:48.557Z,2.58
2023-05-10T06:11:15.912Z,2.97
2023-05-10T06:13:43.441Z,3.03
2023-05-10T06:16:10.689Z,3.78
2023-05-10T06:18:37.889Z,2.75
2023-05-10T06:21:05.389Z,2.58
2023-05-10T06:23:32.590Z,3.25
2023-05-10T06:25:59.971Z,2.70
2023-05-10T06:28:26.825Z,2.80
2023-05-10T06:30:54.243Z,4.72
2023-05-10T06:33:21.170Z,3.08
2023-05-10T06:35:48.511Z,2.88
2023-05-10T06:38:16.240Z,3.00
2023-05-10T06:40:44.414Z,3.17
2023-05-10T06:43:11.758Z,2.85
2023-05-10T06:45:39.074Z,2.75
2023-05-10T06:48:06.480Z,3.33
2023-05-10T06:50:34.292Z,2.92
2023-05-10T06:53:02.880Z,2.58
2023-05-10T06:55:30.384Z,2.97
2023-05-10T06:57:57.571Z,3.05
2023-05-10T07:00:25.026Z,2.53
2023-05-10T07:02:52.261Z,2.53
2023-05-10T07:05:20.084Z,2.30
2023-05-10T07:07:47.379Z,2.30
2023-05-10T07:10:15.026Z,2.63
2023-05-10T07:12:42.208Z,2.33
2023-05-10T07:15:10.272Z,2.50
2023-05-10T07:17:37.448Z,1.80
2023-05-10T07:20:05.397Z,2.50
2023-05-10T07:22:32.415Z,2.35
2023-05-10T07:24:59.765Z,2.80
2023-05-10T07:27:26.946Z,2.60
2023-05-10T07:29:54.132Z,2.70
2023-05-10T07:32:21.351Z,2.83
2023-05-10T07:34:48.749Z,2.28
2023-05-10T07:37:15.732Z,2.50
2023-05-10T07:39:42.929Z,2.58
2023-05-10T07:42:09.928Z,2.78
2023-05-10T07:44:37.081Z,2.33
2023-05-10T07:47:04.110Z,2.15
2023-05-10T07:49:31.355Z,2.65
2023-05-10T07:51:58.391Z,2.53
2023-05-10T07:54:25.739Z,2.70
2023-05-10T07:56:52.796Z,2.55
2023-05-10T07:59:20.150Z,2.53
2023-05-10T08:01:47.209Z,2.22
2023-05-10T08:04:14.563Z,2.83
2023-05-10T08:06:41.821Z,2.90
2023-05-10T08:09:10.116Z,2.53
2023-05-10T08:11:38.474Z,2.78
2023-05-10T08:14:05.822Z,2.60
2023-05-10T08:16:33.545Z,2.65
2023-05-10T08:19:01.020Z,2.60
2023-05-10T08:21:28.115Z,2.40
2023-05-10T08:23:55.391Z,2.25
2023-05-10T08:26:22.705Z,2.05
2023-05-10T08:28:50.080Z,2.67
2023-05-10T08:31:17.320Z,2.20
2023-05-10T08:33:44.949Z,2.30
2023-05-10T08:36:15.155Z,2.35
2023-05-10T08:38:42.526Z,2.30
2023-05-10T08:41:11.111Z,2.70
2023-05-10T08:43:40.150Z,2.47
2023-05-10T08:46:11.580Z,2.30
2023-05-10T08:48:40.490Z,2.55
2023-05-10T08:51:10.543Z,2.60
2023-05-10T08:53:38.691Z,2.33
2023-05-10T08:56:06.273Z,2.20
2023-05-10T08:58:34.174Z,2.30
2023-05-10T09:01:02.267Z,2.92
2023-05-10T09:03:30.418Z,2.60
2023-05-10T09:05:57.944Z,3.10
2023-05-10T09:08:27.575Z,2.30
2023-05-10T09:10:56.526Z,3.38
2023-05-10T09:13:25.740Z,2.38
2023-05-10T09:15:54.694Z,2.75
2023-05-10T09:18:21.952Z,2.42
2023-05-10T09:20:50.397Z,2.63
2023-05-10T09:23:17.557Z,2.67
2023-05-10T09:25:44.524Z,2.83
2023-05-10T09:28:12.973Z,2.33
2023-05-10T09:30:40.424Z,1.88
2023-05-10T09:33:08.066Z,2.20
2023-05-10T09:35:35.230Z,3.28
2023-05-10T09:38:06.015Z,2.05
2023-05-10T09:40:33.427Z,2.33
2023-05-10T09:43:11.767Z,2.65
2023-05-10T09:45:39.388Z,2.00
2023-05-10T09:48:07.704Z,2.30
2023-05-10T09:50:35.391Z,2.25
2023-05-10T09:53:04.953Z,2.55
2023-05-10T09:55:45.928Z,2.03
2023-05-10T09:58:15.230Z,2.22
2023-05-10T10:00:52.647Z,2.10
2023-05-10T10:03:22.248Z,2.40
2023-05-10T10:05:50.165Z,2.15
2023-05-10T10:08:18.753Z,2.22
2023-05-10T10:10:47.165Z,2.38
2023-05-10T10:13:15.859Z,2.03
2023-05-10T10:15:45.229Z,2.50
2023-05-10T10:18:16.304Z,1.90
2023-05-10T10:20:44.014Z,2.47
2023-05-10T10:23:10.905Z,2.58
2023-05-10T10:25:39.845Z,2.70
2023-05-10T10:28:35.842Z,2.15
2023-05-10T10:31:46.586Z,2.10
2023-05-10T10:34:31.571Z,2.10
2023-05-10T10:37:04.693Z,2.15
2023-05-10T10:39:32.294Z,2.05
2023-05-10T10:42:00.310Z,1.80
2023-05-10T10:44:35.867Z,1.70
2023-05-10T10:47:15.451Z,2.28
2023-05-10T10:49:42.585Z,2.20
2023-05-10T10:52:30.257Z,1.98
2023-05-10T10:55:07.210Z,1.60
2023-05-10T10:57:45.866Z,2.22
2023-05-10T11:00:30.264Z,1.90
2023-05-10T11:03:07.479Z,1.85
2023-05-10T11:05:36.049Z,1.90
2023-05-10T11:08:26.885Z,1.75
2023-05-10T11:10:59.883Z,2.30
2023-05-10T11:13:51.827Z,1.90
2023-05-10T11:16:25.927Z,2.17
2023-05-10T11:19:10.522Z,2.50
2023-05-10T11:21:51.719Z,1.80
2023-05-10T11:24:23.370Z,2.50
2023-05-10T11:26:54.927Z,2.40
2023-05-10T11:29:22.299Z,1.83
2023-05-10T11:31:50.619Z,2.15
2023-05-10T11:34:30.567Z,2.13
2023-05-10T11:36:58.436Z,2.03
2023-05-10T11:39:31.709Z,2.15
2023-05-10T11:42:01.244Z,1.88
2023-05-10T11:44:34.740Z,2.22
2023-05-10T11:47:02.956Z,2.55
2023-05-10T11:49:30.460Z,2.35
2023-05-10T11:52:12.125Z,2.08
2023-05-10T11:54:46.361Z,2.10
2023-05-10T11:57:13.302Z,1.70
2023-05-10T11:59:43.023Z,1.67
2023-05-10T12:02:11.355Z,1.80
2023-05-10T12:04:39.298Z,2.13
2023-05-10T12:07:06.731Z,1.65
2023-05-10T12:09:43.062Z,1.92
2023-05-10T12:12:11.632Z,2.08
2023-05-10T12:14:38.964Z,1.98
2023-05-10T12:17:06.084Z,2.40
2023-05-10T12:19:40.825Z,2.15
2023-05-10T12:22:08.104Z,2.60
2023-05-10T12:24:41.143Z,1.42
2023-05-10T12:27:10.364Z,2.15
2023-05-10T12:29:37.966Z,1.98
2023-05-10T12:32:05.287Z,2.10
2023-05-10T12:34:40.001Z,2.92
2023-05-10T12:37:07.178Z,1.88
2023-05-10T12:39:47.198Z,2.13
2023-05-10T12:42:14.207Z,2.15
2023-05-10T12:44:41.538Z,1.95
2023-05-10T12:47:08.677Z,1.92
2023-05-10T12:49:36.520Z,2.30
2023-05-10T12:52:03.708Z,2.20
2023-05-10T12:54:30.990Z,1.90
2023-05-10T12:56:57.975Z,2.72
2023-05-10T12:59:25.433Z,2.13
2023-05-10T13:01:52.552Z,2.40
2023-05-10T13:04:19.726Z,2.30
2023-05-10T13:06:46.957Z,2.38
2023-05-10T13:09:15.285Z,2.65
2023-05-10T13:11:42.544Z,2.25
2023-05-10T13:14:09.866Z,2.67
2023-05-10T13:16:36.838Z,2.38
2023-05-10T13:19:04.160Z,2.42
2023-05-10T13:21:31.447Z,2.47
2023-05-10T13:23:59.095Z,2.35
2023-05-10T13:26:26.586Z,2.58
2023-05-10T13:28:54.013Z,2.35
2023-05-10T13:31:21.652Z,2.30
2023-05-10T13:33:48.908Z,2.53
2023-05-10T13:36:15.947Z,2.78
2023-05-10T13:38:43.214Z,2.90
2023-05-10T13:41:10.193Z,2.47
2023-05-10T13:43:37.504Z,2.72
2023-05-10T13:46:04.588Z,2.22
2023-05-10T13:48:31.916Z,2.50
2023-05-10T13:50:58.852Z,2.40
2023-05-10T13:53:26.297Z,3.65
2023-05-10T13:55:53.198Z,2.60
2023-05-10T13:58:20.374Z,3.30
2023-05-10T14:00:47.360Z,2.50
2023-05-10T14:03:14.686Z,2.78
2023-05-10T14:05:41.655Z,2.38
2023-05-10T14:08:10.471Z,2.83
2023-05-10T14:10:38.010Z,3.25
2023-05-10T14:13:05.267Z,2.58
2023-05-10T14:15:32.956Z,2.38
2023-05-10T14:18:00.608Z,4.78
2023-05-10T14:20:27.534Z,4.00
2023-05-10T14:22:54.722Z,2.60
2023-05-10T14:25:21.796Z,2.53
2023-05-10T14:27:49.003Z,2.67
2023-05-10T14:30:16.202Z,2.38
2023-05-10T14:32:44.067Z,2.58
2023-05-10T14:35:13.120Z,3.72
2023-05-10T14:37:40.757Z,2.50
2023-05-10T14:40:08.499Z,2.45
2023-05-10T14:42:36.078Z,2.55
2023-05-10T14:45:03.665Z,2.20
2023-05-10T14:47:31.223Z,2.55
2023-05-10T14:49:59.268Z,2.20
2023-05-10T14:52:26.811Z,2.30
2023-05-10T14:54:53.786Z,2.50
2023-05-10T14:57:20.970Z,2.28
2023-05-10T14:59:47.911Z,2.22
2023-05-10T15:02:15.657Z,2.28
2023-05-10T15:04:42.972Z,2.35
2023-05-10T15:07:10.578Z,11.00
2023-05-10T15:09:37.745Z,3.10
2023-05-10T15:12:05.002Z,5.05
2023-05-10T15:14:32.481Z,4.13
2023-05-10T15:17:00.824Z,3.15
2023-05-10T15:19:27.751Z,2.40
2023-05-10T15:21:55.002Z,2.20
2023-05-10T15:24:22.859Z,2.30
2023-05-10T15:26:49.998Z,2.08
2023-05-10T15:29:20.762Z,2.80
2023-05-10T15:31:52.346Z,3.08
2023-05-10T15:34:20.033Z,3.05
2023-05-10T15:36:47.286Z,3.70
2023-05-10T15:39:14.302Z,3.35
2023-05-10T15:41:41.966Z,4.18
2023-05-10T15:44:09.011Z,3.38
2023-05-10T15:46:36.385Z,3.10
2023-05-10T15:49:03.712Z,3.25
2023-05-10T15:51:31.186Z,3.65
2023-05-10T15:54:07.071Z,3.42
2023-05-10T15:56:35.850Z,3.53
2023-05-10T15:59:03.870Z,4.07
2023-05-10T16:01:32.538Z,3.78
2023-05-10T16:03:59.796Z,3.60
2023-05-10T16:06:27.443Z,3.35
2023-05-10T16:08:54.781Z,4.22
2023-05-10T16:11:22.485Z,3.70
2023-05-10T16:13:49.511Z,3.78
2023-05-10T16:16:17.210Z,3.35
2023-05-10T16:18:44.398Z,3.78
2023-05-10T16:21:11.891Z,3.28
2023-05-10T16:23:38.870Z,3.08
2023-05-10T16:26:06.063Z,4.03
2023-05-10T16:28:33.169Z,4.05
2023-05-10T16:31:00.485Z,3.60
2023-05-10T16:33:27.447Z,3.67
2023-05-10T16:35:54.761Z,3.78
2023-05-10T16:38:21.929Z,3.28
2023-05-10T16:40:49.466Z,3.17
2023-05-10T16:43:16.576Z,4.00
2023-05-10T16:45:43.930Z,3.47
2023-05-10T16:48:10.929Z,2.65
2023-05-10T16:50:38.138Z,3.28
2023-05-10T16:53:05.323Z,3.40
2023-05-10T16:55:32.704Z,3.60
2023-05-10T16:58:01.052Z,3.75
2023-05-10T17:00:28.300Z,4.50
2023-05-10T17:02:55.858Z,3.70
2023-05-10T17:05:23.292Z,3.20
2023-05-10T17:07:50.574Z,3.47
2023-05-10T17:10:18.030Z,3.42
2023-05-10T17:12:45.890Z,3.05
2023-05-10T17:15:13.311Z,3.40
2023-05-10T17:17:40.383Z,3.95
2023-05-10T17:20:08.810Z,3.15
2023-05-10T17:22:36.192Z,3.50
2023-05-10T17:25:04.286Z,3.60
2023-05-10T17:27:31.629Z,3.42
2023-05-10T17:29:59.717Z,3.35
2023-05-10T17:32:26.872Z,3.78
2023-05-10T17:34:54.195Z,3.70
2023-05-10T17:37:21.179Z,3.20
2023-05-10T17:39:48.500Z,2.92
2023-05-10T17:42:17.610Z,3.20
2023-05-10T17:44:44.956Z,2.90
2023-05-10T17:47:12.009Z,2.88
2023-05-10T17:49:39.911Z,3.70
2023-05-10T17:52:07.484Z,2.97
2023-05-10T17:54:35.206Z,3.38
2023-05-10T17:57:03.692Z,3.58
2023-05-10T17:59:31.005Z,3.03
2023-05-10T18:01:58.123Z,3.65
2023-05-10T18:04:26.106Z,4.40
2023-05-10T18:07:01.020Z,4.05
2023-05-10T18:09:28.973Z,4.63
2023-05-10T18:11:56.308Z,4.53
2023-05-10T18:14:39.025Z,5.35
2023-05-10T18:17:08.123Z,6.07
2023-05-10T18:19:35.680Z,4.78
2023-05-10T18:22:02.888Z,4.57
2023-05-10T18:24:38.815Z,4.32
2023-05-10T18:27:08.966Z,4.57
2023-05-10T18:29:37.023Z,4.50
2023-05-10T18:32:04.241Z,4.32
2023-05-10T18:34:31.537Z,4.05
2023-05-10T18:36:59.231Z,4.82
2023-05-10T18:39:26.510Z,5.22
2023-05-10T18:41:53.710Z,4.88
2023-05-10T18:44:22.011Z,4.72
2023-05-10T18:46:49.101Z,5.15
2023-05-10T18:49:16.441Z,5.25
2023-05-10T18:51:43.593Z,5.55
2023-05-10T18:54:10.827Z,5.28
2023-05-10T18:56:40.056Z,4.90
2023-05-10T18:59:07.278Z,5.43
2023-05-10T19:01:34.253Z,5.18
2023-05-10T19:04:01.641Z,5.38
2023-05-10T19:06:28.713Z,5.93
2023-05-10T19:08:56.005Z,5.70
2023-05-10T19:11:23.336Z,5.22
2023-05-10T19:13:50.681Z,5.47
2023-05-10T19:16:18.299Z,6.25
2023-05-10T19:18:46.733Z,5.18
2023-05-10T19:21:13.835Z,5.90
2023-05-10T19:23:42.063Z,5.65
2023-05-10T19:26:11.173Z,6.07
2023-05-10T19:28:38.695Z,6.25
2023-05-10T19:31:06.289Z,6.70
2023-05-10T19:33:34.321Z,10.25
2023-05-10T19:36:01.223Z,8.10
2023-05-10T19:38:28.462Z,7.88
2023-05-10T19:40:58.304Z,6.97
2023-05-10T19:43:32.829Z,20.42
2023-05-10T19:46:04.761Z,7.80
2023-05-10T19:48:32.434Z,7.45
2023-05-10T19:51:02.151Z,6.78
2023-05-10T19:53:30.620Z,7.07
2023-05-10T19:56:04.730Z,7.30
2023-05-10T19:58:33.378Z,5.65
2023-05-10T20:01:00.499Z,5.97
2023-05-10T20:03:28.562Z,6.15
2023-05-10T20:05:55.721Z,7.03
2023-05-10T20:08:23.049Z,6.63
2023-05-10T20:10:50.147Z,6.28
2023-05-10T20:13:18.073Z,6.22
2023-05-10T20:15:46.611Z,7.60
2023-05-10T20:18:13.939Z,6.90
2023-05-10T20:20:41.227Z,6.97
2023-05-10T20:23:08.807Z,5.80
2023-05-10T20:25:36.221Z,6.30
2023-05-10T20:28:03.840Z,6.63
2023-05-10T20:30:32.598Z,6.43
2023-05-10T20:33:04.295Z,5.72
2023-05-10T20:35:33.654Z,5.82
2023-05-10T20:38:02.172Z,5.88
2023-05-10T20:40:29.151Z,6.53
2023-05-10T20:42:56.520Z,5.88
2023-05-10T20:45:23.511Z,6.22
2023-05-10T20:47:50.844Z,6.43
2023-05-10T20:50:18.112Z,5.45
2023-05-10T20:52:45.712Z,5.63
2023-05-10T20:55:12.847Z,6.28
2023-05-10T20:57:40.244Z,6.30
2023-05-10T21:00:09.461Z,6.30
2023-05-10T21:02:36.985Z,6.25
2023-05-10T21:05:05.330Z,5.78
2023-05-10T21:07:32.979Z,5.70
2023-05-10T21:09:59.990Z,6.28
2023-05-10T21:12:27.172Z,6.20
2023-05-10T21:14:54.290Z,6.35
2023-05-10T21:17:23.159Z,6.10
2023-05-10T21:19:51.206Z,6.55
2023-05-10T21:22:20.868Z,5.88
2023-05-10T21:24:48.060Z,6.15
2023-05-10T21:27:15.368Z,6.43
2023-05-10T21:29:42.915Z,7.50
2023-05-10T21:32:12.435Z,6.07
2023-05-10T21:34:39.956Z,5.90
2023-05-10T21:37:07.326Z,6.15
2023-05-10T21:39:34.407Z,6.50
2023-05-10T21:42:02.068Z,6.22
2023-05-10T21:44:29.561Z,5.55
2023-05-10T21:46:56.732Z,5.70
2023-05-10T21:49:23.684Z,5.68
2023-05-10T21:51:51.195Z,5.90
2023-05-10T21:54:18.396Z,6.40
2023-05-10T21:56:45.775Z,6.30
2023-05-10T21:59:12.765Z,5.30
2023-05-10T22:01:40.118Z,5.50
2023-05-10T22:04:07.154Z,5.15
2023-05-10T22:06:34.832Z,4.97
2023-05-10T22:09:02.190Z,5.03
2023-05-10T22:11:29.679Z,4.32
2023-05-10T22:13:57.076Z,4.50
2023-05-10T22:16:39.451Z,4.60
2023-05-10T22:19:06.983Z,4.72
2023-05-10T22:21:34.350Z,4.40
2023-05-10T22:24:01.576Z,3.83
2023-05-10T22:26:28.821Z,3.30
2023-05-10T22:28:56.179Z,4.07
2023-05-10T22:31:23.680Z,3.40
2023-05-10T22:33:50.881Z,3.78
2023-05-10T22:36:18.245Z,3.58
2023-05-10T22:38:46.008Z,3.58
2023-05-10T22:41:13.342Z,3.55
2023-05-10T22:43:40.336Z,3.72
2023-05-10T22:46:07.761Z,3.92
2023-05-10T22:48:35.878Z,3.33
2023-05-10T22:51:03.844Z,3.47
2023-05-10T22:53:31.271Z,2.92
2023-05-10T22:55:58.686Z,3.65
2023-05-10T22:58:26.771Z,3.10
2023-05-10T23:00:55.617Z,3.03
2023-05-10T23:03:23.005Z,3.28
2023-05-10T23:05:50.463Z,3.00
2023-05-10T23:08:17.526Z,3.30
2023-05-10T23:10:44.818Z,3.10
2023-05-10T23:13:11.867Z,3.38
2023-05-10T23:15:40.233Z,3.17
2023-05-10T23:18:10.340Z,3.47
2023-05-10T23:20:37.592Z,2.95
2023-05-10T23:23:04.606Z,3.20
2023-05-10T23:25:31.801Z,3.80
2023-05-10T23:27:58.762Z,3.08
2023-05-10T23:30:30.085Z,3.20
2023-05-10T23:32:57.827Z,2.75
2023-05-10T23:35:25.030Z,2.75
2023-05-10T23:37:52.300Z,3.00
2023-05-10T23:40:19.916Z,2.83
2023-05-10T23:42:47.312Z,3.10
2023-05-10T23:45:14.586Z,3.08
2023-05-10T23:47:41.727Z,2.80
2023-05-10T23:50:10.700Z,3.38
2023-05-10T23:52:37.776Z,2.78
2023-05-10T23:55:05.575Z,2.97
2023-05-10T23:57:33.582Z,2.70
